createdAt,value
2018-02-13T00:01:26.061Z,96.80
2018-02-13T00:03:54.309Z,96.80
2018-02-13T00:06:21.815Z,96.60
2018-02-13T00:08:49.346Z,96.70
2018-02-13T00:11:16.843Z,96.60
2018-02-13T00:13:44.369Z,96.40
2018-02-13T00:16:11.862Z,96.50
2018-02-13T00:18:39.401Z,96.50
2018-02-13T00:21:06.896Z,96.60
2018-02-13T00:23:35.226Z,96.80
2018-02-13T00:26:02.754Z,96.70
2018-02-13T00:28:30.286Z,96.80
2018-02-13T00:30:57.811Z,96.90
2018-02-13T00:33:25.302Z,96.90
2018-02-13T00:35:52.798Z,96.90
2018-02-13T00:38:20.343Z,96.90
2018-02-13T00:40:47.827Z,96.80
2018-02-13T00:43:15.349Z,96.80
2018-02-13T00:45:42.852Z,96.60
2018-02-13T00:48:10.358Z,96.80
2018-02-13T00:50:38.639Z,97.00
2018-02-13T00:53:06.944Z,96.70
2018-02-13T00:55:34.447Z,96.70
2018-02-13T00:58:01.973Z,96.40
2018-02-13T01:00:29.470Z,96.40
2018-02-13T01:02:56.986Z,96.50
2018-02-13T01:05:24.479Z,96.20
2018-02-13T01:07:51.998Z,96.30
2018-02-13T01:10:19.507Z,96.10
2018-02-13T01:12:46.972Z,96.10
2018-02-13T01:15:15.166Z,96.20
2018-02-13T01:17:42.675Z,96.10
2018-02-13T01:20:10.204Z,96.00
2018-02-13T01:22:37.727Z,96.00
2018-02-13T01:25:05.200Z,95.90
2018-02-13T01:27:32.691Z,96.20
2018-02-13T01:30:00.181Z,96.20
2018-02-13T01:32:27.671Z,96.30
2018-02-13T01:34:55.171Z,96.20
2018-02-13T01:37:22.677Z,96.30
2018-02-13T01:39:50.247Z,96.50
2018-02-13T01:42:17.734Z,96.50
2018-02-13T01:44:45.250Z,96.20
2018-02-13T01:47:13.498Z,96.20
2018-02-13T01:49:40.979Z,96.10
2018-02-13T01:52:09.228Z,95.70
2018-02-13T01:54:36.702Z,95.60
2018-02-13T01:57:04.995Z,96.00
2018-02-13T01:59:32.482Z,95.90
2018-02-13T02:01:59.985Z,95.90
2018-02-13T02:04:27.491Z,95.90
2018-02-13T02:06:54.982Z,96.00
2018-02-13T02:09:22.475Z,96.30
2018-02-13T02:11:50.718Z,96.00
2018-02-13T02:14:18.224Z,96.00
2018-02-13T02:16:45.726Z,96.00
2018-02-13T02:19:13.253Z,95.90
2018-02-13T02:21:40.768Z,95.90
2018-02-13T02:24:08.280Z,95.70
2018-02-13T02:26:35.780Z,95.50
2018-02-13T02:29:03.286Z,95.60
2018-02-13T02:31:30.779Z,95.60
2018-02-13T02:33:58.283Z,95.50
2018-02-13T02:36:25.760Z,95.30
2018-02-13T02:38:53.237Z,95.10
2018-02-13T02:41:20.728Z,95.60
2018-02-13T02:43:48.986Z,95.30
2018-02-13T02:46:16.543Z,95.30
2018-02-13T02:48:44.021Z,95.30
2018-02-13T02:51:11.514Z,95.40
2018-02-13T02:53:39.030Z,95.80
2018-02-13T02:56:06.523Z,95.60
2018-02-13T02:58:34.023Z,95.50
2018-02-13T03:01:01.501Z,95.50
2018-02-13T03:03:29.760Z,95.90
2018-02-13T03:05:57.274Z,95.80
2018-02-13T03:08:24.832Z,96.00
2018-02-13T03:10:52.354Z,96.00
2018-02-13T03:13:20.616Z,96.00
2018-02-13T03:15:48.099Z,96.00
2018-02-13T03:18:16.390Z,95.90
2018-02-13T03:20:44.642Z,95.90
2018-02-13T03:23:12.131Z,95.80
2018-02-13T03:25:39.647Z,96.00
2018-02-13T03:28:07.153Z,96.20
2018-02-13T03:30:34.663Z,96.20
2018-02-13T03:33:02.159Z,96.20
2018-02-13T03:35:29.650Z,95.90
2018-02-13T03:37:57.178Z,95.60
2018-02-13T03:40:24.674Z,95.60
2018-02-13T03:42:52.211Z,95.90
2018-02-13T03:45:19.745Z,96.20
2018-02-13T03:47:47.260Z,96.40
2018-02-13T03:50:14.799Z,96.70
2018-02-13T03:52:42.353Z,96.70
2018-02-13T03:55:09.871Z,96.60
2018-02-13T03:57:37.349Z,96.50
2018-02-13T04:00:04.893Z,96.60
2018-02-13T04:02:33.155Z,96.40
2018-02-13T04:05:01.391Z,96.40
2018-02-13T04:07:28.891Z,96.40
2018-02-13T04:09:57.129Z,96.50
2018-02-13T04:12:24.626Z,96.40
2018-02-13T04:14:52.935Z,97.20
2018-02-13T04:17:20.436Z,97.00
2018-02-13T04:19:47.941Z,97.30
2018-02-13T04:22:15.413Z,97.40
2018-02-13T04:24:42.890Z,97.20
2018-02-13T04:27:10.399Z,96.80
2018-02-13T04:29:37.879Z,96.70
2018-02-13T04:32:05.381Z,96.40
2018-02-13T04:34:32.870Z,96.30
2018-02-13T04:37:00.347Z,96.50
2018-02-13T04:39:27.841Z,96.40
2018-02-13T04:41:55.321Z,96.30
2018-02-13T04:44:23.596Z,97.20
2018-02-13T04:46:51.098Z,97.10
2018-02-13T04:49:18.573Z,97.30
2018-02-13T04:51:46.091Z,97.40
2018-02-13T04:54:13.886Z,97.40
2018-02-13T04:56:41.491Z,97.10
2018-02-13T04:59:08.973Z,97.00
2018-02-13T05:01:36.545Z,97.10
2018-02-13T05:04:04.045Z,97.10
2018-02-13T05:06:31.551Z,97.00
2018-02-13T05:08:59.064Z,97.00
2018-02-13T05:11:26.563Z,97.20
2018-02-13T05:13:54.083Z,97.40
2018-02-13T05:16:21.634Z,97.50
2018-02-13T05:18:49.101Z,97.50
2018-02-13T05:21:16.607Z,97.20
2018-02-13T05:23:44.139Z,96.90
2018-02-13T05:26:12.407Z,96.60
2018-02-13T05:28:39.910Z,96.50
2018-02-13T05:31:07.438Z,96.70
2018-02-13T05:33:34.919Z,96.80
2018-02-13T05:36:02.393Z,97.20
2018-02-13T05:38:29.899Z,96.70
2018-02-13T05:40:57.380Z,96.50
2018-02-13T05:43:24.860Z,96.40
2018-02-13T05:45:52.379Z,96.40
2018-02-13T05:48:20.609Z,97.00
2018-02-13T05:50:48.083Z,96.90
2018-02-13T05:53:15.577Z,97.00
2018-02-13T05:55:43.083Z,97.20
2018-02-13T05:58:11.342Z,96.90
2018-02-13T06:00:38.829Z,96.90
2018-02-13T06:03:06.363Z,96.90
2018-02-13T06:05:33.875Z,97.10
2018-02-13T06:08:01.369Z,97.20
2018-02-13T06:10:28.843Z,97.20
2018-02-13T06:12:56.314Z,97.40
2018-02-13T06:15:23.890Z,97.40
2018-02-13T06:17:51.394Z,97.60
2018-02-13T06:20:18.870Z,97.60
2018-02-13T06:22:46.368Z,97.60
2018-02-13T06:25:13.845Z,97.50
2018-02-13T06:27:41.367Z,97.00
2018-02-13T06:30:08.890Z,96.90
2018-02-13T06:32:36.386Z,97.20
2018-02-13T06:35:03.879Z,97.30
2018-02-13T06:37:32.147Z,97.60
2018-02-13T06:40:01.202Z,97.70
2018-02-13T06:42:29.073Z,97.70
2018-02-13T06:44:56.624Z,97.70
2018-02-13T06:47:24.152Z,97.80
2018-02-13T06:49:51.639Z,98.00
2018-02-13T06:52:19.136Z,98.10
2018-02-13T06:54:46.639Z,98.30
2018-02-13T06:57:14.142Z,98.20
2018-02-13T06:59:41.680Z,98.20
2018-02-13T07:02:09.197Z,98.10
2018-02-13T07:04:36.716Z,98.10
2018-02-13T07:07:04.449Z,98.20
2018-02-13T07:09:31.932Z,97.80
2018-02-13T07:12:00.325Z,97.40
2018-02-13T07:14:28.603Z,97.00
2018-02-13T07:16:56.204Z,96.90
2018-02-13T07:19:23.727Z,96.50
2018-02-13T07:21:51.191Z,95.90
2018-02-13T07:24:18.694Z,95.40
2018-02-13T07:26:46.207Z,95.40
2018-02-13T07:29:14.462Z,95.90
2018-02-13T07:31:41.974Z,95.80
2018-02-13T07:34:09.481Z,95.90
2018-02-13T07:36:37.026Z,95.90
2018-02-13T07:39:05.351Z,96.10
2018-02-13T07:41:32.854Z,96.00
2018-02-13T07:44:00.781Z,96.20
2018-02-13T07:46:28.276Z,96.20
2018-02-13T07:48:55.814Z,96.40
2018-02-13T07:51:23.339Z,96.10
2018-02-13T07:53:50.843Z,96.00
2018-02-13T07:56:18.374Z,95.90
2018-02-13T07:58:45.867Z,96.10
2018-02-13T08:01:13.371Z,96.10
2018-02-13T08:03:40.883Z,95.90
2018-02-13T08:06:08.375Z,95.90
2018-02-13T08:08:36.657Z,95.90
2018-02-13T08:11:04.154Z,95.90
2018-02-13T08:13:31.638Z,95.90
2018-02-13T08:15:59.160Z,96.00
2018-02-13T08:18:26.665Z,96.00
2018-02-13T08:20:54.211Z,96.10
2018-02-13T08:23:21.707Z,95.10
2018-02-13T08:25:49.223Z,94.60
2018-02-13T08:28:16.722Z,94.70
2018-02-13T08:30:44.270Z,94.80
2018-02-13T08:33:12.551Z,94.60
2018-02-13T08:35:40.077Z,94.50
2018-02-13T08:38:07.560Z,94.80
2018-02-13T08:40:35.095Z,95.20
2018-02-13T08:43:02.608Z,95.30
2018-02-13T08:45:30.108Z,95.70
2018-02-13T08:47:57.627Z,95.70
2018-02-13T08:50:25.123Z,95.70
2018-02-13T08:52:52.658Z,95.70
2018-02-13T08:55:20.158Z,95.70
2018-02-13T08:57:48.442Z,95.60
2018-02-13T09:00:16.703Z,95.70
2018-02-13T09:02:44.943Z,95.70
2018-02-13T09:05:12.471Z,95.70
2018-02-13T09:07:39.956Z,95.70
2018-02-13T09:10:07.455Z,96.40
2018-02-13T09:12:35.731Z,95.90
2018-02-13T09:15:04.000Z,95.50
2018-02-13T09:17:31.537Z,95.30
2018-02-13T09:19:59.032Z,94.70
2018-02-13T09:22:26.547Z,94.30
2018-02-13T09:24:54.047Z,93.80
2018-02-13T09:27:21.559Z,93.60
2018-02-13T09:29:49.098Z,93.10
2018-02-13T09:32:16.624Z,92.90
2018-02-13T09:34:44.894Z,92.60
2018-02-13T09:37:13.149Z,92.50
2018-02-13T09:39:40.697Z,92.30
2018-02-13T09:42:08.225Z,91.70
2018-02-13T09:44:35.722Z,91.20
2018-02-13T09:47:03.282Z,91.30
2018-02-13T09:49:30.818Z,90.00
2018-02-13T09:51:58.295Z,90.50
2018-02-13T09:54:26.537Z,90.30
2018-02-13T09:56:54.831Z,89.20
2018-02-13T09:59:22.346Z,89.00
2018-02-13T10:01:50.099Z,89.30
2018-02-13T10:04:18.447Z,88.20
2018-02-13T10:06:45.994Z,87.40
2018-02-13T10:09:13.465Z,87.90
2018-02-13T10:11:40.952Z,87.20
2018-02-13T10:14:08.462Z,85.00
2018-02-13T10:16:35.943Z,85.80
2018-02-13T10:19:03.484Z,83.70
2018-02-13T10:21:30.993Z,85.60
2018-02-13T10:23:58.464Z,84.20
2018-02-13T10:26:32.655Z,84.40
2018-02-13T10:29:00.603Z,84.00
2018-02-13T10:31:28.125Z,83.30
2018-02-13T10:33:55.602Z,83.40
2018-02-13T10:36:23.093Z,81.40
2018-02-13T10:38:50.612Z,80.60
2018-02-13T10:41:18.080Z,79.80
2018-02-13T10:43:45.564Z,79.50
2018-02-13T10:46:13.063Z,81.50
2018-02-13T10:48:40.672Z,80.50
2018-02-13T10:51:08.143Z,80.10
2018-02-13T10:53:36.414Z,79.40
2018-02-13T10:56:03.914Z,79.20
2018-02-13T10:58:31.415Z,81.00
2018-02-13T11:01:05.452Z,79.00
2018-02-13T11:03:34.495Z,77.80
2018-02-13T11:06:02.374Z,76.60
2018-02-13T11:08:29.880Z,75.00
2018-02-13T11:10:57.395Z,73.80
2018-02-13T11:13:24.897Z,75.70
2018-02-13T11:15:52.386Z,75.60
2018-02-13T11:18:19.895Z,75.60
2018-02-13T11:20:48.179Z,74.60
2018-02-13T11:23:15.717Z,74.50
2018-02-13T11:25:43.995Z,74.50
2018-02-13T11:28:11.825Z,74.30
2018-02-13T11:30:39.303Z,73.50
2018-02-13T11:33:06.818Z,72.50
2018-02-13T11:35:34.313Z,74.40
2018-02-13T11:38:02.591Z,74.00
2018-02-13T11:40:30.081Z,73.80
2018-02-13T11:42:57.594Z,72.30
2018-02-13T11:45:25.091Z,70.90
2018-02-13T11:47:52.578Z,69.00
2018-02-13T11:50:20.067Z,70.90
2018-02-13T11:52:47.570Z,70.70
2018-02-13T11:55:15.805Z,73.10
2018-02-13T11:57:43.297Z,73.00
2018-02-13T12:00:11.550Z,70.40
2018-02-13T12:02:39.039Z,70.30
2018-02-13T12:05:07.294Z,70.50
2018-02-13T12:07:35.974Z,70.00
2018-02-13T12:10:03.455Z,69.90
2018-02-13T12:12:31.707Z,64.10
2018-02-13T12:14:59.173Z,64.00
2018-02-13T12:17:27.449Z,65.10
2018-02-13T12:19:56.542Z,65.40
2018-02-13T12:22:24.026Z,65.40
2018-02-13T12:24:51.510Z,67.50
2018-02-13T12:27:19.007Z,66.70
2018-02-13T12:29:47.291Z,65.90
2018-02-13T12:32:15.519Z,65.10
2018-02-13T12:34:42.994Z,64.30
2018-02-13T12:37:10.525Z,64.20
2018-02-13T12:39:39.378Z,63.90
2018-02-13T12:42:06.914Z,63.30
2018-02-13T12:44:34.500Z,63.10
2018-02-13T12:47:02.066Z,61.80
2018-02-13T12:49:30.328Z,61.70
2018-02-13T12:51:58.584Z,66.20
2018-02-13T12:54:27.129Z,65.40
2018-02-13T12:56:54.687Z,67.50
2018-02-13T12:59:22.427Z,68.00
2018-02-13T13:01:49.991Z,70.90
2018-02-13T13:04:17.536Z,70.90
2018-02-13T13:06:45.861Z,69.00
2018-02-13T13:09:13.668Z,68.70
2018-02-13T13:11:43.715Z,69.50
2018-02-13T13:14:20.370Z,69.80
2018-02-13T13:16:48.004Z,70.30
2018-02-13T13:19:15.488Z,70.50
2018-02-13T13:21:43.010Z,69.50
2018-02-13T13:24:10.516Z,67.00
2018-02-13T13:26:38.049Z,66.70
2018-02-13T13:29:05.614Z,68.60
2018-02-13T13:31:33.931Z,69.90
2018-02-13T13:34:01.488Z,69.60
2018-02-13T13:36:29.087Z,69.90
2018-02-13T13:38:56.667Z,69.10
2018-02-13T13:41:24.150Z,67.70
2018-02-13T13:43:51.634Z,65.90
2018-02-13T13:46:19.131Z,66.70
2018-02-13T13:48:46.634Z,66.50
2018-02-13T13:51:14.115Z,65.70
2018-02-13T13:53:43.148Z,63.70
2018-02-13T13:56:11.565Z,62.00
2018-02-13T13:58:40.871Z,59.60
2018-02-13T14:01:08.492Z,58.30
2018-02-13T14:03:36.811Z,61.60
2018-02-13T14:06:05.088Z,61.30
2018-02-13T14:08:33.708Z,64.50
2018-02-13T14:11:01.349Z,63.80
2018-02-13T14:13:28.925Z,64.50
2018-02-13T14:15:57.060Z,63.90
2018-02-13T14:18:27.598Z,64.30
2018-02-13T14:20:55.120Z,65.70
2018-02-13T14:23:23.421Z,63.80
2018-02-13T14:25:50.918Z,63.50
2018-02-13T14:28:18.430Z,61.10
2018-02-13T14:30:45.993Z,61.40
2018-02-13T14:33:13.518Z,60.70
2018-02-13T14:35:41.782Z,61.10
2018-02-13T14:38:09.283Z,60.90
2018-02-13T14:40:36.814Z,61.10
2018-02-13T14:43:04.343Z,61.80
2018-02-13T14:45:31.824Z,60.20
2018-02-13T14:47:59.321Z,61.40
2018-02-13T14:50:26.791Z,60.70
2018-02-13T14:52:54.342Z,58.40
2018-02-13T14:55:21.855Z,56.60
2018-02-13T14:57:50.120Z,57.50
2018-02-13T15:00:17.607Z,57.30
2018-02-13T15:02:45.107Z,58.80
2018-02-13T15:05:12.577Z,58.90
2018-02-13T15:07:40.087Z,59.60
2018-02-13T15:10:07.660Z,61.30
2018-02-13T15:12:35.186Z,61.10
2018-02-13T15:15:05.515Z,61.00
2018-02-13T15:20:31.788Z,62.10
2018-02-13T15:22:59.288Z,62.60
2018-02-13T15:25:26.823Z,63.60
2018-02-13T15:27:54.319Z,63.90
2018-02-13T15:30:22.613Z,65.50
2018-02-13T15:32:50.109Z,65.30
2018-02-13T15:35:17.628Z,64.30
2018-02-13T15:37:45.141Z,64.00
2018-02-13T15:40:12.667Z,64.60
2018-02-13T15:42:40.158Z,64.50
2018-02-13T15:45:07.675Z,65.50
2018-02-13T15:47:35.740Z,66.60
2018-02-13T15:50:03.235Z,66.20
2018-02-13T15:52:30.751Z,67.10
2018-02-13T15:54:58.270Z,67.70
2018-02-13T15:57:25.744Z,68.60
2018-02-13T15:59:53.258Z,67.50
2018-02-13T16:02:20.773Z,68.20
2018-02-13T16:04:48.301Z,69.40
2018-02-13T16:07:16.051Z,68.90
2018-02-13T16:09:43.544Z,69.30
2018-02-13T16:12:11.136Z,69.60
2018-02-13T16:14:39.119Z,70.40
2018-02-13T16:17:06.622Z,71.00
2018-02-13T16:19:34.910Z,72.60
2018-02-13T16:22:03.168Z,73.10
2018-02-13T16:24:31.448Z,73.60
2018-02-13T16:26:59.767Z,74.20
2018-02-13T16:29:27.248Z,74.00
2018-02-13T16:31:54.748Z,74.50
2018-02-13T16:34:22.257Z,75.40
2018-02-13T16:36:49.764Z,75.70
2018-02-13T16:39:18.063Z,76.00
2018-02-13T16:41:45.592Z,75.70
2018-02-13T16:44:13.103Z,76.20
2018-02-13T16:46:40.597Z,76.40
2018-02-13T16:49:08.334Z,76.50
2018-02-13T16:51:35.914Z,76.70
2018-02-13T16:54:03.449Z,76.50
2018-02-13T16:56:30.942Z,76.90
2018-02-13T16:58:58.468Z,76.90
2018-02-13T17:01:25.998Z,76.90
2018-02-13T17:03:53.509Z,76.90
2018-02-13T17:06:21.044Z,77.30
2018-02-13T17:08:48.566Z,78.00
2018-02-13T17:11:16.123Z,77.60
2018-02-13T17:13:43.640Z,77.20
2018-02-13T17:16:11.149Z,77.50
2018-02-13T17:18:38.627Z,77.40
2018-02-13T17:21:06.158Z,77.30
2018-02-13T17:23:33.635Z,77.10
2018-02-13T17:26:01.205Z,75.60
2018-02-13T17:28:28.709Z,75.50
2018-02-13T17:30:57.015Z,76.10
2018-02-13T17:33:24.527Z,75.30
2018-02-13T17:35:54.746Z,75.00
2018-02-13T17:38:22.262Z,75.20
2018-02-13T17:40:49.772Z,74.90
2018-02-13T17:43:17.266Z,74.90
2018-02-13T17:45:44.791Z,74.90
2018-02-13T17:48:12.310Z,75.10
2018-02-13T17:50:39.870Z,76.70
2018-02-13T17:53:07.377Z,76.90
2018-02-13T17:55:34.928Z,77.60
2018-02-13T17:58:02.415Z,77.30
2018-02-13T18:00:29.905Z,77.90
2018-02-13T18:02:58.186Z,79.50
2018-02-13T18:05:25.695Z,79.30
2018-02-13T18:07:53.217Z,79.40
2018-02-13T18:10:20.733Z,79.70
2018-02-13T18:12:48.294Z,80.50
2018-02-13T18:15:15.797Z,81.10
2018-02-13T18:17:43.322Z,80.90
2018-02-13T18:20:10.819Z,81.60
2018-02-13T18:22:38.321Z,81.60
2018-02-13T18:25:05.834Z,81.80
2018-02-13T18:27:33.439Z,81.80
2018-02-13T18:30:00.951Z,82.10
2018-02-13T18:32:28.551Z,82.20
2018-02-13T18:34:56.093Z,82.20
2018-02-13T18:37:24.367Z,83.30
2018-02-13T18:39:52.631Z,83.50
2018-02-13T18:42:20.134Z,83.30
2018-02-13T18:44:47.654Z,83.20
2018-02-13T18:47:15.921Z,83.60
2018-02-13T18:49:43.447Z,83.50
2018-02-13T18:54:38.543Z,83.70
2018-02-13T18:57:06.055Z,83.60
2018-02-13T18:59:33.609Z,84.20
2018-02-13T19:02:01.109Z,83.60
2018-02-13T19:04:28.592Z,84.20
2018-02-13T19:06:56.083Z,84.10
2018-02-13T19:09:23.652Z,84.00
2018-02-13T19:11:52.352Z,83.90
2018-02-13T19:14:19.999Z,83.60
2018-02-13T19:19:15.722Z,83.90
2018-02-13T19:21:45.328Z,84.70
2018-02-13T19:24:12.837Z,84.00
2018-02-13T19:26:40.385Z,84.30
2018-02-13T19:29:07.897Z,84.80
2018-02-13T19:31:35.394Z,85.20
2018-02-13T19:34:02.923Z,85.60
2018-02-13T19:36:30.487Z,85.60
2018-02-13T19:38:58.770Z,86.10
2018-02-13T19:41:27.038Z,86.70
2018-02-13T19:43:55.309Z,86.60
2018-02-13T19:46:23.593Z,86.80
2018-02-13T19:48:51.889Z,86.70
2018-02-13T19:51:19.895Z,86.60
2018-02-13T19:53:47.417Z,87.00
2018-02-13T19:56:15.004Z,87.30
2018-02-13T19:58:43.499Z,86.90
2018-02-13T20:01:11.005Z,87.20
2018-02-13T20:03:38.574Z,87.20
2018-02-13T20:06:06.123Z,87.20
2018-02-13T20:11:07.558Z,87.50
2018-02-13T20:13:35.060Z,88.10
2018-02-13T20:16:02.875Z,88.10
2018-02-13T20:18:31.385Z,87.90
2018-02-13T20:20:59.042Z,88.00
2018-02-13T20:23:27.328Z,88.80
2018-02-13T20:25:54.876Z,88.70
2018-02-13T20:28:22.504Z,88.80
2018-02-13T20:30:50.816Z,89.20
2018-02-13T20:33:18.390Z,89.00
2018-02-13T20:35:46.847Z,88.50
2018-02-13T20:38:14.407Z,88.20
2018-02-13T20:40:41.997Z,88.00
2018-02-13T20:43:09.533Z,87.90
2018-02-13T20:45:37.892Z,88.20
2018-02-13T20:48:05.510Z,87.80
2018-02-13T20:50:33.072Z,87.80
2018-02-13T20:53:01.381Z,88.50
2018-02-13T20:55:28.928Z,87.90
2018-02-13T20:57:56.482Z,87.70
2018-02-13T21:00:24.012Z,88.00
2018-02-13T21:02:51.533Z,88.20
2018-02-13T21:05:19.063Z,88.50
2018-02-13T21:07:46.536Z,88.50
2018-02-13T21:10:14.045Z,88.40
2018-02-13T21:12:41.635Z,88.50
2018-02-13T21:15:09.158Z,88.40
2018-02-13T21:17:36.669Z,88.40
2018-02-13T21:20:04.173Z,88.30
2018-02-13T21:22:31.696Z,88.30
2018-02-13T21:24:59.182Z,88.40
2018-02-13T21:27:26.691Z,88.50
2018-02-13T21:29:54.200Z,88.40
2018-02-13T21:32:21.710Z,88.30
2018-02-13T21:34:49.210Z,88.30
2018-02-13T21:37:16.806Z,88.20
2018-02-13T21:39:44.333Z,88.20
2018-02-13T21:42:12.590Z,88.70
2018-02-13T21:44:40.867Z,88.70
2018-02-13T21:47:09.150Z,88.90
2018-02-13T21:49:37.425Z,89.00
2018-02-13T21:52:04.909Z,88.80
2018-02-13T21:54:32.434Z,88.80
2018-02-13T21:57:00.724Z,89.20
2018-02-13T21:59:28.230Z,89.10
2018-02-13T22:01:55.743Z,89.10
2018-02-13T22:04:23.227Z,89.30
2018-02-13T22:06:50.762Z,88.90
2018-02-13T22:09:18.271Z,89.20
2018-02-13T22:11:45.774Z,89.20
2018-02-13T22:14:13.292Z,89.50
2018-02-13T22:16:40.802Z,89.40
2018-02-13T22:19:08.324Z,89.50
2018-02-13T22:21:35.827Z,89.40
2018-02-13T22:24:03.324Z,89.60
2018-02-13T22:26:30.846Z,89.70
2018-02-13T22:28:58.323Z,89.90
2018-02-13T22:31:25.862Z,90.00
2018-02-13T22:33:53.440Z,89.80
2018-02-13T22:36:20.977Z,89.30
2018-02-13T22:38:48.512Z,89.10
2018-02-13T22:41:16.018Z,89.60
2018-02-13T22:43:43.521Z,89.50
2018-02-13T22:46:11.030Z,89.60
2018-02-13T22:48:38.527Z,89.70
2018-02-13T22:51:06.795Z,89.90
2018-02-13T22:53:34.288Z,89.80
2018-02-13T22:56:01.785Z,89.70
2018-02-13T22:58:30.996Z,89.70
2018-02-13T23:00:58.474Z,89.30
2018-02-13T23:03:26.754Z,89.50
2018-02-13T23:05:55.042Z,89.60
2018-02-13T23:08:22.583Z,90.10
2018-02-13T23:10:50.180Z,89.70
2018-02-13T23:13:17.675Z,89.80
2018-02-13T23:15:45.175Z,90.00
2018-02-13T23:18:12.675Z,90.10
2018-02-13T23:20:40.214Z,90.20
2018-02-13T23:23:07.697Z,90.30
2018-02-13T23:25:35.197Z,90.60
2018-02-13T23:28:02.719Z,90.30
2018-02-13T23:30:30.228Z,90.30
2018-02-13T23:32:57.760Z,90.40
2018-02-13T23:35:26.015Z,90.60
2018-02-13T23:37:53.501Z,90.50
2018-02-13T23:40:21.782Z,90.60
2018-02-13T23:42:49.324Z,90.60
2018-02-13T23:45:16.846Z,90.60
2018-02-13T23:47:44.343Z,90.50
2018-02-13T23:50:12.633Z,90.60
2018-02-13T23:52:40.187Z,90.60
2018-02-13T23:55:07.728Z,90.70
2018-02-13T23:57:36.012Z,90.90
